sensor_id;sensor_type;location;lat;lon;timestamp;P1;durP1;ratioP1;P2;durP2;ratioP2
59145;SDS011;44928;53.074;6.646;2022-08-04T00:01:52;10.18;;;2.60;;
59145;SDS011;44928;53.074;6.646;2022-08-04T00:04:37;6.82;;;2.30;;
59145;SDS011;44928;53.074;6.646;2022-08-04T00:07:18;8.45;;;2.55;;
59145;SDS011;44928;53.074;6.646;2022-08-04T00:10:03;10.18;;;2.53;;
59145;SDS011;44928;53.074;6.646;2022-08-04T00:12:31;8.98;;;2.33;;
59145;SDS011;44928;53.074;6.646;2022-08-04T00:15:02;7.70;;;2.63;;
59145;SDS011;44928;53.074;6.646;2022-08-04T00:17:48;7.38;;;2.65;;
59145;SDS011;44928;53.074;6.646;2022-08-04T00:20:28;10.07;;;2.70;;
59145;SDS011;44928;53.074;6.646;2022-08-04T00:22:56;10.15;;;2.83;;
59145;SDS011;44928;53.074;6.646;2022-08-04T00:25:23;6.45;;;2.35;;
59145;SDS011;44928;53.074;6.646;2022-08-04T00:27:50;7.40;;;2.58;;
59145;SDS011;44928;53.074;6.646;2022-08-04T00:30:15;11.85;;;2.95;;
59145;SDS011;44928;53.074;6.646;2022-08-04T00:32:42;8.82;;;2.70;;
59145;SDS011;44928;53.074;6.646;2022-08-04T00:35:08;9.57;;;2.80;;
59145;SDS011;44928;53.074;6.646;2022-08-04T00:37:37;10.07;;;3.20;;
59145;SDS011;44928;53.074;6.646;2022-08-04T00:40:07;9.63;;;3.35;;
59145;SDS011;44928;53.074;6.646;2022-08-04T00:45:39;9.77;;;2.80;;
59145;SDS011;44928;53.074;6.646;2022-08-04T01:11:42;8.00;;;3.67;;
59145;SDS011;44928;53.074;6.646;2022-08-04T01:16:29;9.80;;;3.63;;
59145;SDS011;44928;53.074;6.646;2022-08-04T01:19:04;10.60;;;3.47;;
59145;SDS011;44928;53.074;6.646;2022-08-04T01:27:10;8.95;;;3.50;;
59145;SDS011;44928;53.074;6.646;2022-08-04T01:29:59;14.48;;;4.53;;
59145;SDS011;44928;53.074;6.646;2022-08-04T01:32:40;11.52;;;4.50;;
59145;SDS011;44928;53.074;6.646;2022-08-04T01:35:15;9.68;;;3.90;;
59145;SDS011;44928;53.074;6.646;2022-08-04T01:38:01;11.15;;;3.58;;
59145;SDS011;44928;53.074;6.646;2022-08-04T01:40:42;9.07;;;3.63;;
59145;SDS011;44928;53.074;6.646;2022-08-04T01:43:09;13.40;;;4.40;;
59145;SDS011;44928;53.074;6.646;2022-08-04T01:45:37;13.82;;;4.43;;
59145;SDS011;44928;53.074;6.646;2022-08-04T01:48:04;13.15;;;4.65;;
59145;SDS011;44928;53.074;6.646;2022-08-04T01:50:35;12.77;;;4.70;;
59145;SDS011;44928;53.074;6.646;2022-08-04T01:53:01;11.98;;;4.40;;
59145;SDS011;44928;53.074;6.646;2022-08-04T01:55:28;10.85;;;4.65;;
59145;SDS011;44928;53.074;6.646;2022-08-04T01:57:55;11.82;;;4.13;;
59145;SDS011;44928;53.074;6.646;2022-08-04T02:00:25;10.50;;;4.95;;
59145;SDS011;44928;53.074;6.646;2022-08-04T02:02:53;14.35;;;5.20;;
59145;SDS011;44928;53.074;6.646;2022-08-04T02:05:20;9.40;;;3.80;;
59145;SDS011;44928;53.074;6.646;2022-08-04T02:08:00;13.88;;;4.72;;
59145;SDS011;44928;53.074;6.646;2022-08-04T02:13:10;10.82;;;4.75;;
59145;SDS011;44928;53.074;6.646;2022-08-04T02:16:01;9.20;;;3.95;;
59145;SDS011;44928;53.074;6.646;2022-08-04T02:21:20;9.27;;;3.60;;
59145;SDS011;44928;53.074;6.646;2022-08-04T02:23:52;10.77;;;3.70;;
59145;SDS011;44928;53.074;6.646;2022-08-04T02:26:22;8.63;;;3.60;;
59145;SDS011;44928;53.074;6.646;2022-08-04T02:28:57;9.57;;;3.92;;
59145;SDS011;44928;53.074;6.646;2022-08-04T02:36:55;11.35;;;3.38;;
59145;SDS011;44928;53.074;6.646;2022-08-04T02:39:23;9.88;;;3.45;;
59145;SDS011;44928;53.074;6.646;2022-08-04T02:41:55;10.57;;;3.70;;
59145;SDS011;44928;53.074;6.646;2022-08-04T02:44:23;10.75;;;4.10;;
59145;SDS011;44928;53.074;6.646;2022-08-04T02:46:52;9.77;;;4.07;;
59145;SDS011;44928;53.074;6.646;2022-08-04T02:49:20;10.80;;;4.43;;
59145;SDS011;44928;53.074;6.646;2022-08-04T02:51:54;9.27;;;4.43;;
59145;SDS011;44928;53.074;6.646;2022-08-04T02:54:30;10.13;;;3.47;;
59145;SDS011;44928;53.074;6.646;2022-08-04T02:56:59;8.13;;;3.35;;
59145;SDS011;44928;53.074;6.646;2022-08-04T02:59:26;7.35;;;2.88;;
59145;SDS011;44928;53.074;6.646;2022-08-04T03:01:54;9.93;;;3.13;;
59145;SDS011;44928;53.074;6.646;2022-08-04T03:07:32;8.50;;;3.25;;
59145;SDS011;44928;53.074;6.646;2022-08-04T03:10:22;8.60;;;3.20;;
59145;SDS011;44928;53.074;6.646;2022-08-04T03:26:33;7.65;;;3.28;;
59145;SDS011;44928;53.074;6.646;2022-08-04T03:41:21;8.38;;;3.05;;
59145;SDS011;44928;53.074;6.646;2022-08-04T03:52:34;8.32;;;2.25;;
59145;SDS011;44928;53.074;6.646;2022-08-04T04:01:05;6.25;;;2.70;;
59145;SDS011;44928;53.074;6.646;2022-08-04T04:12:06;5.50;;;2.38;;
59145;SDS011;44928;53.074;6.646;2022-08-04T04:23:29;5.15;;;1.90;;
59145;SDS011;44928;53.074;6.646;2022-08-04T04:28:46;6.28;;;2.55;;
59145;SDS011;44928;53.074;6.646;2022-08-04T04:33:57;8.50;;;3.17;;
59145;SDS011;44928;53.074;6.646;2022-08-04T04:42:18;5.55;;;2.28;;
59145;SDS011;44928;53.074;6.646;2022-08-04T04:45:19;7.00;;;2.90;;
59145;SDS011;44928;53.074;6.646;2022-08-04T04:55:44;8.68;;;3.78;;
59145;SDS011;44928;53.074;6.646;2022-08-04T04:58:16;11.40;;;4.18;;
59145;SDS011;44928;53.074;6.646;2022-08-04T05:06:49;11.25;;;4.80;;
59145;SDS011;44928;53.074;6.646;2022-08-04T05:15:23;10.50;;;4.93;;
59145;SDS011;44928;53.074;6.646;2022-08-04T05:17:54;8.98;;;3.80;;
59145;SDS011;44928;53.074;6.646;2022-08-04T05:20:25;12.73;;;6.80;;
59145;SDS011;44928;53.074;6.646;2022-08-04T05:23:00;12.00;;;5.20;;
59145;SDS011;44928;53.074;6.646;2022-08-04T05:28:02;11.13;;;4.03;;
59145;SDS011;44928;53.074;6.646;2022-08-04T05:30:28;10.63;;;5.15;;
59145;SDS011;44928;53.074;6.646;2022-08-04T05:33:02;13.13;;;5.45;;
59145;SDS011;44928;53.074;6.646;2022-08-04T05:35:41;11.13;;;5.32;;
59145;SDS011;44928;53.074;6.646;2022-08-04T05:38:14;13.20;;;5.57;;
59145;SDS011;44928;53.074;6.646;2022-08-04T05:40:44;11.52;;;4.95;;
59145;SDS011;44928;53.074;6.646;2022-08-04T05:43:10;14.88;;;5.38;;
59145;SDS011;44928;53.074;6.646;2022-08-04T05:45:38;10.18;;;4.50;;
59145;SDS011;44928;53.074;6.646;2022-08-04T05:48:06;10.55;;;4.72;;
59145;SDS011;44928;53.074;6.646;2022-08-04T05:50:33;11.30;;;4.90;;
59145;SDS011;44928;53.074;6.646;2022-08-04T05:53:00;12.40;;;6.05;;
59145;SDS011;44928;53.074;6.646;2022-08-04T05:55:27;13.02;;;5.50;;
59145;SDS011;44928;53.074;6.646;2022-08-04T05:57:54;13.80;;;7.10;;
59145;SDS011;44928;53.074;6.646;2022-08-04T06:00:23;13.75;;;6.30;;
59145;SDS011;44928;53.074;6.646;2022-08-04T06:02:51;14.02;;;6.68;;
59145;SDS011;44928;53.074;6.646;2022-08-04T06:05:18;15.15;;;7.63;;
59145;SDS011;44928;53.074;6.646;2022-08-04T06:07:44;18.60;;;7.65;;
59145;SDS011;44928;53.074;6.646;2022-08-04T06:10:11;13.88;;;7.20;;
59145;SDS011;44928;53.074;6.646;2022-08-04T06:12:41;13.90;;;6.90;;
59145;SDS011;44928;53.074;6.646;2022-08-04T06:15:11;15.23;;;6.95;;
59145;SDS011;44928;53.074;6.646;2022-08-04T06:17:42;14.18;;;6.78;;
59145;SDS011;44928;53.074;6.646;2022-08-04T06:20:12;15.77;;;6.45;;
59145;SDS011;44928;53.074;6.646;2022-08-04T06:22:39;12.45;;;6.22;;
59145;SDS011;44928;53.074;6.646;2022-08-04T06:25:07;15.80;;;6.85;;
59145;SDS011;44928;53.074;6.646;2022-08-04T06:27:36;13.93;;;6.85;;
59145;SDS011;44928;53.074;6.646;2022-08-04T06:30:03;12.80;;;6.35;;
59145;SDS011;44928;53.074;6.646;2022-08-04T06:32:34;12.80;;;6.57;;
59145;SDS011;44928;53.074;6.646;2022-08-04T06:35:03;12.20;;;6.28;;
59145;SDS011;44928;53.074;6.646;2022-08-04T06:37:31;12.60;;;6.53;;
59145;SDS011;44928;53.074;6.646;2022-08-04T06:39:58;12.38;;;6.45;;
59145;SDS011;44928;53.074;6.646;2022-08-04T06:42:26;13.48;;;6.10;;
59145;SDS011;44928;53.074;6.646;2022-08-04T06:44:54;12.20;;;5.72;;
59145;SDS011;44928;53.074;6.646;2022-08-04T06:47:22;11.65;;;5.90;;
59145;SDS011;44928;53.074;6.646;2022-08-04T06:49:49;13.30;;;6.05;;
59145;SDS011;44928;53.074;6.646;2022-08-04T06:52:18;11.68;;;5.28;;
59145;SDS011;44928;53.074;6.646;2022-08-04T06:54:47;15.20;;;5.93;;
59145;SDS011;44928;53.074;6.646;2022-08-04T06:57:17;12.85;;;5.43;;
59145;SDS011;44928;53.074;6.646;2022-08-04T06:59:45;13.57;;;5.47;;
59145;SDS011;44928;53.074;6.646;2022-08-04T07:02:16;12.52;;;5.07;;
59145;SDS011;44928;53.074;6.646;2022-08-04T07:04:45;11.43;;;5.18;;
59145;SDS011;44928;53.074;6.646;2022-08-04T07:07:12;13.80;;;5.70;;
59145;SDS011;44928;53.074;6.646;2022-08-04T07:09:39;13.32;;;5.55;;
59145;SDS011;44928;53.074;6.646;2022-08-04T07:12:06;13.85;;;4.70;;
59145;SDS011;44928;53.074;6.646;2022-08-04T07:14:33;10.10;;;5.07;;
59145;SDS011;44928;53.074;6.646;2022-08-04T07:17:03;11.85;;;4.30;;
59145;SDS011;44928;53.074;6.646;2022-08-04T07:19:32;11.35;;;4.80;;
59145;SDS011;44928;53.074;6.646;2022-08-04T07:21:59;11.05;;;4.30;;
59145;SDS011;44928;53.074;6.646;2022-08-04T07:24:29;9.93;;;4.35;;
59145;SDS011;44928;53.074;6.646;2022-08-04T07:26:56;13.32;;;3.92;;
59145;SDS011;44928;53.074;6.646;2022-08-04T07:29:21;12.77;;;4.05;;
59145;SDS011;44928;53.074;6.646;2022-08-04T07:31:48;9.88;;;3.70;;
59145;SDS011;44928;53.074;6.646;2022-08-04T07:34:15;14.15;;;4.13;;
59145;SDS011;44928;53.074;6.646;2022-08-04T07:36:42;8.55;;;2.97;;
59145;SDS011;44928;53.074;6.646;2022-08-04T07:39:07;10.48;;;3.63;;
59145;SDS011;44928;53.074;6.646;2022-08-04T07:41:33;10.55;;;3.25;;
59145;SDS011;44928;53.074;6.646;2022-08-04T07:44:00;11.88;;;3.22;;
59145;SDS011;44928;53.074;6.646;2022-08-04T07:46:27;11.25;;;3.72;;
59145;SDS011;44928;53.074;6.646;2022-08-04T07:48:53;11.38;;;3.40;;
59145;SDS011;44928;53.074;6.646;2022-08-04T07:51:19;10.57;;;3.60;;
59145;SDS011;44928;53.074;6.646;2022-08-04T07:53:46;10.52;;;3.25;;
59145;SDS011;44928;53.074;6.646;2022-08-04T07:56:14;11.18;;;3.03;;
59145;SDS011;44928;53.074;6.646;2022-08-04T07:58:40;10.13;;;3.13;;
59145;SDS011;44928;53.074;6.646;2022-08-04T08:01:06;9.77;;;3.00;;
59145;SDS011;44928;53.074;6.646;2022-08-04T08:03:33;10.15;;;2.95;;
59145;SDS011;44928;53.074;6.646;2022-08-04T08:06:01;10.90;;;2.75;;
59145;SDS011;44928;53.074;6.646;2022-08-04T08:08:28;11.15;;;2.95;;
59145;SDS011;44928;53.074;6.646;2022-08-04T08:10:54;12.38;;;3.35;;
59145;SDS011;44928;53.074;6.646;2022-08-04T08:13:20;10.23;;;3.10;;
59145;SDS011;44928;53.074;6.646;2022-08-04T08:15:46;7.68;;;2.45;;
59145;SDS011;44928;53.074;6.646;2022-08-04T08:18:12;11.00;;;3.10;;
59145;SDS011;44928;53.074;6.646;2022-08-04T08:20:38;10.82;;;2.83;;
59145;SDS011;44928;53.074;6.646;2022-08-04T08:23:04;12.27;;;2.95;;
59145;SDS011;44928;53.074;6.646;2022-08-04T08:25:32;11.77;;;3.25;;
59145;SDS011;44928;53.074;6.646;2022-08-04T08:28:01;10.88;;;2.55;;
59145;SDS011;44928;53.074;6.646;2022-08-04T08:30:28;9.35;;;2.70;;
59145;SDS011;44928;53.074;6.646;2022-08-04T08:32:53;11.77;;;2.75;;
59145;SDS011;44928;53.074;6.646;2022-08-04T08:35:19;9.55;;;2.75;;
59145;SDS011;44928;53.074;6.646;2022-08-04T08:37:53;7.82;;;2.60;;
59145;SDS011;44928;53.074;6.646;2022-08-04T08:45:52;8.73;;;2.55;;
59145;SDS011;44928;53.074;6.646;2022-08-04T08:51:29;10.13;;;3.17;;
59145;SDS011;44928;53.074;6.646;2022-08-04T08:54:27;9.77;;;2.83;;
59145;SDS011;44928;53.074;6.646;2022-08-04T09:08:49;9.40;;;2.70;;
59145;SDS011;44928;53.074;6.646;2022-08-04T09:13:44;8.35;;;3.17;;
59145;SDS011;44928;53.074;6.646;2022-08-04T09:16:18;10.77;;;3.22;;
59145;SDS011;44928;53.074;6.646;2022-08-04T09:24:29;8.20;;;3.00;;
59145;SDS011;44928;53.074;6.646;2022-08-04T09:30:15;10.18;;;3.63;;
59145;SDS011;44928;53.074;6.646;2022-08-04T09:33:21;10.30;;;4.00;;
59145;SDS011;44928;53.074;6.646;2022-08-04T09:35:52;10.80;;;3.60;;
59145;SDS011;44928;53.074;6.646;2022-08-04T09:38:32;13.98;;;4.60;;
59145;SDS011;44928;53.074;6.646;2022-08-04T09:46:39;10.77;;;3.28;;
59145;SDS011;44928;53.074;6.646;2022-08-04T09:52:03;8.60;;;4.05;;
59145;SDS011;44928;53.074;6.646;2022-08-04T09:57:49;11.15;;;4.28;;
59145;SDS011;44928;53.074;6.646;2022-08-04T10:00:28;12.23;;;4.10;;
59145;SDS011;44928;53.074;6.646;2022-08-04T10:03:00;9.82;;;3.50;;
59145;SDS011;44928;53.074;6.646;2022-08-04T10:11:17;11.20;;;4.30;;
59145;SDS011;44928;53.074;6.646;2022-08-04T10:19:44;10.60;;;3.17;;
59145;SDS011;44928;53.074;6.646;2022-08-04T10:27:40;10.57;;;2.67;;
59145;SDS011;44928;53.074;6.646;2022-08-04T10:30:15;10.55;;;3.47;;
59145;SDS011;44928;53.074;6.646;2022-08-04T10:32:48;8.70;;;2.78;;
59145;SDS011;44928;53.074;6.646;2022-08-04T10:35:23;8.55;;;2.80;;
59145;SDS011;44928;53.074;6.646;2022-08-04T10:40:33;11.05;;;2.70;;
59145;SDS011;44928;53.074;6.646;2022-08-04T10:45:57;9.30;;;2.70;;
59145;SDS011;44928;53.074;6.646;2022-08-04T10:51:34;8.18;;;2.22;;
59145;SDS011;44928;53.074;6.646;2022-08-04T10:54:11;8.18;;;2.47;;
59145;SDS011;44928;53.074;6.646;2022-08-04T10:56:48;7.32;;;2.00;;
59145;SDS011;44928;53.074;6.646;2022-08-04T10:59:29;9.57;;;2.47;;
59145;SDS011;44928;53.074;6.646;2022-08-04T11:07:44;9.57;;;2.00;;
59145;SDS011;44928;53.074;6.646;2022-08-04T11:10:12;10.93;;;2.17;;
59145;SDS011;44928;53.074;6.646;2022-08-04T11:12:39;6.07;;;1.85;;
59145;SDS011;44928;53.074;6.646;2022-08-04T11:15:12;7.80;;;1.88;;
59145;SDS011;44928;53.074;6.646;2022-08-04T11:17:49;10.25;;;1.80;;
59145;SDS011;44928;53.074;6.646;2022-08-04T11:23:05;12.38;;;2.70;;
